^^
MeteoGriva-Weather Station Historical Data
Daily Summary for June 16, 2020 Units:  English    Metric   Both
Daily Weekly Monthly Yearly Custom
  High: Low: Average:
Temperature: 50.9 °F 38.1 °F 43 °F
Dew Point: 43.9 °F 36.1 °F 39.2 °F
Humidity: 99% 72.8% 87%
Wind Speed: 4.4mph 0mph 0.2mph
Wind Gust: 10.1mph - -
Wind- - SE
Pressure: 30.4 in 30.2 in -
Precipitation: 0 in    
Historical Graphs
 
 
Tabular Data for June 16, 2020
Time Temperature Dew Point Pressure Wind Wind Speed Wind Gust Humidity Rainfall Rate (Hourly) solar
00:04 41.5 °F 39.4 °F 30.4 in Calm     92% 0 in 0 W/m2
00:09 41.7 °F 39.4 °F 30.4 in Calm     91.4% 0 in 0 W/m2
00:14 41.7 °F 39.6 °F 30.4 in Calm     92% 0 in 0 W/m2
00:19 41.5 °F 39.6 °F 30.4 in Calm     92.7% 0 in 0 W/m2
00:24 41.4 °F 39.6 °F 30.4 in Calm     93% 0 in 0 W/m2
00:29 41.2 °F 39.4 °F 30.4 in Calm     93% 0 in 0 W/m2
00:34 41.2 °F 39.6 °F 30.4 in Calm     94% 0 in 0 W/m2
00:39 40.8 °F 39.4 °F 30.4 in Calm     94.6% 0 in 0 W/m2
00:44 40.1 °F 38.8 °F 30.4 in Calm     95% 0 in 0 W/m2
00:49 40.1 °F 38.8 °F 30.4 in Calm     95% 0 in 0 W/m2
00:54 40.1 °F 38.8 °F 30.4 in Calm     95% 0 in 0 W/m2
00:59 40.1 °F 38.8 °F 30.4 in Calm     95.1% 0 in 0 W/m2
01:04 39.9 °F 39 °F 30.4 in Calm     96.6% 0 in 0 W/m2
01:09 39.9 °F 38.7 °F 30.4 in Calm     95.3% 0 in 0 W/m2
01:14 39.9 °F 38.3 °F 30.4 in Calm     94% 0 in 0 W/m2
01:19 39.9 °F 38.3 °F 30.4 in Calm     94% 0 in 0 W/m2
01:24 39.9 °F 38.3 °F 30.4 in Calm     93.6% 0 in 0 W/m2
01:29 40.1 °F 38.1 °F 30.4 in Calm     92.3% 0 in 0 W/m2
01:34 40.1 °F 37.9 °F 30.4 in Calm     91.4% 0 in 0 W/m2
01:39 40.5 °F 38.3 °F 30.4 in Calm     92% 0 in 0 W/m2
01:44 40.8 °F 38.7 °F 30.4 in Calm     91.8% 0 in 0 W/m2
01:49 40.8 °F 38.3 °F 30.4 in Calm     90.3% 0 in 0 W/m2
01:54 41 °F 38.3 °F 30.4 in Calm     90% 0 in 0 W/m2
01:59 41.2 °F 38.3 °F 30.4 in Calm     89.6% 0 in 0 W/m2
02:04 41.5 °F 38.3 °F 30.4 in Calm     88.2% 0 in 0 W/m2
02:09 41.5 °F 38.5 °F 30.4 in Calm     88.7% 0 in 0 W/m2
02:14 41.5 °F 38.3 °F 30.4 in Calm     88% 0 in 0 W/m2
02:19 41.7 °F 38.5 °F 30.4 in Calm     87.8% 0 in 0 W/m2
02:24 41.7 °F 38.5 °F 30.4 in Calm     88.3% 0 in 0 W/m2
02:29 41.7 °F 37.9 °F 30.4 in Calm     86.3% 0 in 0 W/m2
02:34 41.9 °F 37.8 °F 30.4 in Calm     85.6% 0 in 0 W/m2
02:39 41.9 °F 37.8 °F 30.4 in Calm     85.1% 0 in 0 W/m2
02:44 41.7 °F 38.1 °F 30.4 in Calm     87.1% 0 in 0 W/m2
02:49 41.5 °F 38.1 °F 30.4 in Calm     87.4% 0 in 0 W/m2
02:54 41.5 °F 38.1 °F 30.4 in Calm     87.4% 0 in 0 W/m2
02:59 41.4 °F 38.1 °F 30.4 in Calm     88% 0 in 0 W/m2
03:04 41.4 °F 37.8 °F 30.4 in Calm     87.2% 0 in 0 W/m2
03:09 41.4 °F 37.8 °F 30.4 in Calm     86.4% 0 in 0 W/m2
03:14 41.4 °F 37.4 °F 30.4 in Calm     85.4% 0 in 0 W/m2
03:19 41.5 °F 37.6 °F 30.4 in Calm     86% 0 in 0 W/m2
03:24 41.5 °F 37.6 °F 30.4 in Calm     86% 0 in 0 W/m2
03:29 41.4 °F 37.6 °F 30.4 in Calm     86.3% 0 in 0 W/m2
03:34 41.4 °F 37.8 °F 30.4 in Calm     87% 0 in 0 W/m2
03:39 41.4 °F 37.8 °F 30.4 in Calm     86.8% 0 in 0 W/m2
03:44 41.2 °F 37.2 °F 30.4 in Calm     85.7% 0 in 0 W/m2
03:49 41.2 °F 37.6 °F 30.4 in Calm     87% 0 in 0 W/m2
03:54 41 °F 37.9 °F 30.4 in Calm     88.1% 0 in 0 W/m2
03:59 41 °F 37.8 °F 30.4 in Calm     88% 0 in 0 W/m2
04:04 40.8 °F 37.6 °F 30.4 in Calm     88% 0 in 0 W/m2
04:09 40.8 °F 37.6 °F 30.4 in Calm     88% 0 in 0 W/m2
04:14 40.8 °F 37.6 °F 30.4 in Calm     87.8% 0 in 0 W/m2
04:19 40.8 °F 37.4 °F 30.4 in Calm     87.4% 0 in 0 W/m2
04:24 40.6 °F 37 °F 30.4 in Calm     87% 0 in 0 W/m2
04:29 40.6 °F 36.9 °F 30.4 in Calm     86.1% 0 in 0 W/m2
04:34 40.6 °F 36.9 °F 30.4 in Calm     86% 0 in 0 W/m2
04:39 40.8 °F 36.9 °F 30.4 in Calm     85.1% 0 in 0 W/m2
04:44 41.4 °F 37 °F 30.3 in Calm     84.3% 0 in 0 W/m2
04:49 41.4 °F 36.9 °F 30.3 in Calm     83.8% 0 in 0 W/m2
04:54 41.4 °F 36.7 °F 30.3 in Calm     83.2% 0 in 0 W/m2
04:59 41.5 °F 37 °F 30.3 in Calm     84% 0 in 0 W/m2
05:04 41.2 °F 37.2 °F 30.3 in Calm     85.9% 0 in 0 W/m2
05:09 41 °F 37.6 °F 30.3 in Calm     87.6% 0 in 0 W/m2
05:14 40.8 °F 37.8 °F 30.3 in Calm     89% 0 in 0 W/m2
05:19 40.3 °F 37.6 °F 30.3 in Calm     89.8% 0 in 0 W/m2
05:24 39.6 °F 36.3 °F 30.3 in Calm     88.3% 0 in 0 W/m2
05:29 39.6 °F 36.3 °F 30.3 in Calm     87.9% 0 in 0 W/m2
05:34 39.6 °F 36.5 °F 30.3 in NNW 0.2 mph 2.5 mph 88.7% 0 in 0 W/m2
05:39 39.6 °F 36.5 °F 30.3 in Calm     89% 0 in 0 W/m2
05:44 39.9 °F 36.7 °F 30.3 in Calm     88.4% 0 in 0 W/m2
05:49 39.7 °F 36.5 °F 30.3 in Calm     88.3% 0 in 0 W/m2
05:54 39.9 °F 36.1 °F 30.3 in Calm     86.8% 0 in 0 W/m2
05:59 39.9 °F 36.1 °F 30.3 in Calm     86% 0 in 0 W/m2
06:04 40.6 °F 36.7 °F 30.3 in Calm     85.6% 0 in 0 W/m2
06:09 40.6 °F 36.7 °F 30.3 in Calm     85.6% 0 in 0 W/m2
06:14 40.6 °F 36.7 °F 30.3 in Calm     85.4% 0 in 0 W/m2
06:19 40.6 °F 36.5 °F 30.3 in Calm     84.9% 0 in 0 W/m2
06:24 41.2 °F 36.7 °F 30.3 in Calm     84% 0 in 0 W/m2
06:29 41.2 °F 36.5 °F 30.3 in Calm     83.1% 0 in 0 W/m2
06:34 41.2 °F 36.5 °F 30.3 in Calm     83% 0 in 0 W/m2
06:39 41.4 °F 36.5 °F 30.3 in Calm     82.9% 0 in 0 W/m2
06:44 42.3 °F 37.2 °F 30.3 in Calm     82% 0 in 0 W/m2
06:49 42.3 °F 37.2 °F 30.3 in Calm     82% 0 in 0 W/m2
06:54 42.3 °F 37 °F 30.3 in Calm     81.4% 0 in 0 W/m2
06:59 42.3 °F 36.9 °F 30.3 in Calm     81% 0 in 0 W/m2
07:04 42.1 °F 37 °F 30.3 in Calm     82.4% 0 in 0 W/m2
07:09 42.1 °F 37.2 °F 30.3 in Calm     82.7% 0 in 0 W/m2
07:14 42.1 °F 37 °F 30.3 in Calm     82.1% 0 in 0 W/m2
07:19 41.9 °F 36.9 °F 30.3 in Calm     82% 0 in 0 W/m2
07:24 41.5 °F 36.5 °F 30.3 in Calm     82.7% 0 in 0 W/m2
07:29 41.4 °F 36.9 °F 30.3 in Calm     84% 0 in 0 W/m2
07:34 41.2 °F 36.9 °F 30.3 in Calm     84.6% 0 in 0 W/m2
07:39 41.2 °F 36.5 °F 30.3 in Calm     83.2% 0 in 0 W/m2
07:44 42.1 °F 36.7 °F 30.3 in Calm     80.9% 0 in 0 W/m2
07:49 42.4 °F 36.5 °F 30.3 in Calm     79.3% 0 in 0 W/m2
07:54 42.6 °F 36.9 °F 30.3 in Calm     80.2% 0 in 0 W/m2
07:59 42.6 °F 37 °F 30.3 in Calm     80.4% 0 in 4 W/m2
08:04 43.2 °F 37 °F 30.3 in Calm     79% 0 in 8 W/m2
08:09 43.3 °F 37.4 °F 30.3 in Calm     79.7% 0 in 13 W/m2
08:14 43.3 °F 37.9 °F 30.3 in Calm     80.9% 0 in 20 W/m2
08:19 43.3 °F 37.8 °F 30.3 in SSW 0.2 mph 2.5 mph 80.4% 0 in 25 W/m2
08:24 43.7 °F 37.6 °F 30.3 in SSW 0.5 mph 4.9 mph 78.8% 0 in 30 W/m2
08:29 43.9 °F 37.4 °F 30.3 in Calm     78% 0 in 34 W/m2
08:34 44.2 °F 37.4 °F 30.3 in Calm     76.4% 0 in 39 W/m2
08:39 44.4 °F 38.3 °F 30.3 in Calm     78.9% 0 in 43 W/m2
08:44 43.9 °F 38.1 °F 30.3 in Calm     80% 0 in 46 W/m2
08:49 43.5 °F 38.3 °F 30.4 in Calm     81.4% 0 in 50 W/m2
08:54 43.3 °F 38.8 °F 30.4 in Calm     83.6% 0 in 54 W/m2
08:59 43.3 °F 38.8 °F 30.4 in Calm     84% 0 in 57 W/m2
09:04 42.8 °F 38.1 °F 30.4 in Calm     83.9% 0 in 60 W/m2
09:09 42.6 °F 38.3 °F 30.4 in Calm     84.8% 0 in 63 W/m2
09:14 42.6 °F 38.3 °F 30.4 in Calm     84.4% 0 in 65 W/m2
09:19 42.6 °F 39.2 °F 30.4 in North 0.1 mph 2.5 mph 87.7% 0 in 67 W/m2
09:24 41.7 °F 39.2 °F 30.4 in Calm   2.5 mph 90.2% 0 in 69 W/m2
09:29 41.5 °F 38.7 °F 30.4 in NNE 0.7 mph 4.9 mph 89.4% 0 in 70 W/m2
09:34 41.5 °F 38.7 °F 30.4 in North 0.9 mph 4.9 mph 89.4% 0 in 71 W/m2
09:39 41.7 °F 38.7 °F 30.4 in North 0.6 mph 4.9 mph 88.4% 0 in 73 W/m2
09:44 42.3 °F 38.8 °F 30.4 in NNE 2.2 mph 4.9 mph 87.3% 0 in 74 W/m2
09:49 42.4 °F 38.8 °F 30.4 in NNE 0.6 mph 4.9 mph 87% 0 in 75 W/m2
09:54 42.4 °F 38.8 °F 30.4 in Calm   2.5 mph 87% 0 in 77 W/m2
09:59 42.4 °F 38.8 °F 30.4 in Calm     87% 0 in 78 W/m2
10:04 42.8 °F 39.4 °F 30.4 in NE 0.1 mph 2.5 mph 87.2% 0 in 79 W/m2
10:09 43.2 °F 39 °F 30.4 in NE 0.2 mph 4.9 mph 85.2% 0 in 79 W/m2
10:14 43.3 °F 38.5 °F 30.4 in Calm     82.6% 0 in 80 W/m2
10:19 43.7 °F 38.5 °F 30.4 in Calm     81.4% 0 in 81 W/m2
10:24 44.2 °F 39 °F 30.4 in Calm     81.5% 0 in 82 W/m2
10:29 44.6 °F 39.2 °F 30.4 in Calm     81.2% 0 in 82 W/m2
10:34 44.6 °F 38.7 °F 30.4 in Calm     79.5% 0 in 83 W/m2
10:39 44.8 °F 38.7 °F 30.4 in Calm     78.9% 0 in 83 W/m2
10:44 45.5 °F 39.4 °F 30.4 in Calm     78.8% 0 in 84 W/m2
10:49 46 °F 39.4 °F 30.4 in Calm     77.6% 0 in 85 W/m2
10:54 46.6 °F 38.7 °F 30.4 in Calm     73.9% 0 in 87 W/m2
10:59 47.1 °F 39.6 °F 30.4 in Calm     74.9% 0 in 88 W/m2
11:04 48.2 °F 41.2 °F 30.4 in Calm     76.8% 0 in 91 W/m2
11:09 48.9 °F 42.6 °F 30.4 in East 0.9 mph 4.9 mph 78.8% 0 in 92 W/m2
11:14 48.7 °F 42.8 °F 30.4 in Calm     80.1% 0 in 96 W/m2
11:19 48.7 °F 42.6 °F 30.3 in South 0.1 mph 2.5 mph 79.6% 0 in 99 W/m2
11:24 48.2 °F 42.3 °F 30.3 in SSE 0.4 mph 4.9 mph 80% 0 in 102 W/m2
11:29 47.8 °F 42.1 °F 30.3 in ESE 0.6 mph 4.9 mph 80.4% 0 in 104 W/m2
11:34 47.7 °F 42.1 °F 30.3 in SSE 1 mph 4.9 mph 81.1% 0 in 108 W/m2
11:39 47.5 °F 42.3 °F 30.3 in SE 0.4 mph 4.9 mph 82.3% 0 in 111 W/m2
11:44 46.9 °F 41.9 °F 30.3 in SE 0.4 mph 2.5 mph 82.1% 0 in 114 W/m2
11:49 46.6 °F 41 °F 30.3 in Calm   4.9 mph 81.1% 0 in 115 W/m2
11:54 46.6 °F 41.2 °F 30.3 in Calm     81.7% 0 in 94 W/m2
11:59 46.8 °F 41 °F 30.3 in Calm     80% 0 in 83 W/m2
12:04 47.3 °F 41.5 °F 30.3 in Calm     79.9% 0 in 83 W/m2
12:09 48.6 °F 42.3 °F 30.3 in South 1.1 mph 7.6 mph 78.7% 0 in 83 W/m2
12:14 48.6 °F 41.9 °F 30.3 in SSE 2.1 mph 7.6 mph 77.7% 0 in 81 W/m2
12:19 48.7 °F 42.1 °F 30.3 in South 1.7 mph 7.6 mph 77.4% 0 in 105 W/m2
12:24 49.3 °F 42.1 °F 30.3 in SE 1.9 mph 7.6 mph 76.1% 0 in 148 W/m2
12:29 50 °F 42.8 °F 30.3 in SSE 4.4 mph 7.6 mph 76% 0 in 164 W/m2
12:34 50 °F 42.4 °F 30.3 in SSE 3.5 mph 7.6 mph 74.8% 0 in 174 W/m2
12:39 50.2 °F 42.4 °F 30.3 in South 3.5 mph 10.1 mph 74.8% 0 in 184 W/m2
12:44 50.4 °F 42.4 °F 30.3 in SSE 4 mph 10.1 mph 73.9% 0 in 194 W/m2
12:49 50.5 °F 42.3 °F 30.3 in South 4.3 mph 10.1 mph 72.8% 0 in 205 W/m2
12:54 50.4 °F 42.1 °F 30.3 in South 4.3 mph 10.1 mph 73% 0 in 217 W/m2
12:59 50.2 °F 42.1 °F 30.3 in SE 2.5 mph 10.1 mph 73.8% 0 in 227 W/m2
13:04 49.6 °F 42.1 °F 30.3 in SSE 1.3 mph 7.6 mph 74.7% 0 in 238 W/m2
13:09 48.9 °F 41.2 °F 30.3 in ESE 0.5 mph 4.9 mph 74.6% 0 in 248 W/m2
13:14 48.9 °F 41.5 °F 30.3 in East 0.7 mph 4.9 mph 75.4% 0 in 260 W/m2
13:19 48.7 °F 43 °F 30.3 in Calm   4.9 mph 80.1% 0 in 270 W/m2
13:24 48 °F 42.1 °F 30.3 in ESE 0.1 mph 2.5 mph 80.3% 0 in 276 W/m2
13:29 46.8 °F 41 °F 30.3 in Calm     80.2% 0 in 284 W/m2
13:34 46.8 °F 41.4 °F 30.3 in Calm     81.3% 0 in 287 W/m2
13:39 46.6 °F 41.4 °F 30.3 in Calm     81.8% 0 in 293 W/m2
13:44 46.9 °F 41 °F 30.3 in Calm   2.5 mph 79.8% 0 in 299 W/m2
13:49 47.7 °F 41.2 °F 30.3 in Calm     78.2% 0 in 303 W/m2
13:54 47.8 °F 41.2 °F 30.3 in ESE 0.2 mph 4.9 mph 77.3% 0 in 309 W/m2
13:59 48 °F 41.2 °F 30.3 in Calm   2.5 mph 76.7% 0 in 310 W/m2
14:04 48.6 °F 41.7 °F 30.3 in Calm     76.6% 0 in 311 W/m2
14:09 49.6 °F 42.8 °F 30.3 in SE 0.4 mph 4.9 mph 76.8% 0 in 311 W/m2
14:14 49.6 °F 42.4 °F 30.3 in Calm   2.5 mph 75.8% 0 in 311 W/m2
14:19 49.8 °F 42.6 °F 30.3 in Calm     76.2% 0 in 310 W/m2
14:24 49.8 °F 42.8 °F 30.3 in SSE 0.2 mph 4.9 mph 76.2% 0 in 306 W/m2
14:29 50.4 °F 43.2 °F 30.3 in SSE 0.6 mph 7.6 mph 76.3% 0 in 304 W/m2
14:34 50.4 °F 43.3 °F 30.3 in SSE 0.3 mph 4.9 mph 76.9% 0 in 301 W/m2
14:39 50.4 °F 43.3 °F 30.3 in Calm   4.9 mph 77.1% 0 in 300 W/m2
14:44 50.4 °F 43.5 °F 30.3 in South 0.5 mph 4.9 mph 77.5% 0 in 292 W/m2
14:49 50.7 °F 43.7 °F 30.3 in South 0.6 mph 4.9 mph 77% 0 in 288 W/m2
14:54 50.7 °F 43.7 °F 30.3 in SE 1.1 mph 4.9 mph 77% 0 in 287 W/m2
14:59 50.5 °F 43.9 °F 30.3 in SE 1.4 mph 7.6 mph 78% 0 in 277 W/m2
15:04 50.5 °F 43.5 °F 30.3 in SSE 1.2 mph 7.6 mph 77% 0 in 275 W/m2
15:09 50.4 °F 43.3 °F 30.3 in SE 0.4 mph 4.9 mph 77.2% 0 in 273 W/m2
15:14 50.4 °F 43.3 °F 30.3 in South 0.7 mph 4.9 mph 77.2% 0 in 265 W/m2
15:19 50.4 °F 43.3 °F 30.3 in Calm   2.5 mph 77.2% 0 in 263 W/m2
15:24 50.4 °F 43.5 °F 30.2 in SSE 0.1 mph 4.9 mph 77.4% 0 in 258 W/m2
15:29 50.4 °F 43.3 °F 30.2 in Calm   4.9 mph 77.1% 0 in 255 W/m2
15:34 50.5 °F 43.2 °F 30.2 in Calm     75.5% 0 in 249 W/m2
15:39 50.9 °F 42.8 °F 30.2 in Calm     73.7% 0 in 242 W/m2
15:44 50.9 °F 43.7 °F 30.2 in Calm     76.3% 0 in 233 W/m2
15:49 48.6 °F 42.1 °F 30.2 in Calm     77.8% 0 in 223 W/m2
15:54 48.7 °F 41.4 °F 30.2 in Calm     75.2% 0 in 215 W/m2
15:59 49.1 °F 41.9 °F 30.2 in Calm     76.2% 0 in 200 W/m2
16:04 49.3 °F 42.4 °F 30.2 in Calm     77.1% 0 in 80 W/m2
16:09 48.9 °F 42.6 °F 30.2 in Calm     78.8% 0 in 43 W/m2
16:14 48.7 °F 43.2 °F 30.2 in Calm     80.6% 0 in 40 W/m2
16:19 48.6 °F 43.2 °F 30.2 in Calm     81.4% 0 in 38 W/m2
16:24 48 °F 43.2 °F 30.2 in Calm     83% 0 in 34 W/m2
16:29 45.3 °F 40.8 °F 30.2 in Calm     84.2% 0 in 31 W/m2
16:34 45.3 °F 41 °F 30.2 in Calm     85% 0 in 28 W/m2
16:39 45.1 °F 41.2 °F 30.2 in Calm     86.1% 0 in 25 W/m2
16:44 45 °F 41.4 °F 30.2 in Calm     87.2% 0 in 23 W/m2
16:49 43.9 °F 40.6 °F 30.2 in Calm     87.9% 0 in 21 W/m2
16:54 43.7 °F 40.5 °F 30.2 in Calm     88% 0 in 19 W/m2
16:59 43.5 °F 40.5 °F 30.2 in Calm     88.9% 0 in 17 W/m2
17:04 43.3 °F 40.3 °F 30.2 in Calm     89% 0 in 14 W/m2
17:09 42.4 °F 39.7 °F 30.2 in Calm     90% 0 in 11 W/m2
17:14 42.1 °F 39.6 °F 30.2 in Calm     91% 0 in 8 W/m2
17:19 42.1 °F 39.6 °F 30.2 in Calm     91% 0 in 6 W/m2
17:24 42.1 °F 39.9 °F 30.2 in Calm     91.9% 0 in 4 W/m2
17:29 41.5 °F 39.4 °F 30.2 in Calm     92.3% 0 in 0 W/m2
17:34 41.4 °F 39.6 °F 30.2 in Calm     93% 0 in 0 W/m2
17:39 41.2 °F 39.6 °F 30.3 in Calm     93.6% 0 in 0 W/m2
17:44 41.2 °F 39.6 °F 30.3 in Calm     94% 0 in 0 W/m2
17:49 40.6 °F 39 °F 30.3 in Calm     94% 0 in 0 W/m2
17:54 40.3 °F 38.8 °F 30.3 in Calm     94.7% 0 in 0 W/m2
17:59 40.3 °F 39.2 °F 30.3 in Calm     95.7% 0 in 0 W/m2
18:04 40.3 °F 39 °F 30.3 in Calm     95.2% 0 in 0 W/m2
18:09 40.5 °F 39 °F 30.3 in Calm     94.8% 0 in 0 W/m2
18:14 40.5 °F 38.8 °F 30.3 in Calm     94% 0 in 0 W/m2
18:19 40.5 °F 38.8 °F 30.3 in Calm     94.1% 0 in 0 W/m2
18:24 40.3 °F 39 °F 30.3 in Calm     95.1% 0 in 0 W/m2
18:29 39.9 °F 38.8 °F 30.3 in Calm     95% 0 in 0 W/m2
18:34 39.9 °F 38.7 °F 30.3 in Calm     95% 0 in 0 W/m2
18:39 39.9 °F 38.5 °F 30.3 in Calm     94.3% 0 in 0 W/m2
18:44 39.9 °F 38.7 °F 30.3 in Calm     95.2% 0 in 0 W/m2
18:49 39.9 °F 38.8 °F 30.3 in Calm     95.7% 0 in 0 W/m2
18:54 39.9 °F 38.7 °F 30.3 in Calm     94.8% 0 in 0 W/m2
18:59 39.9 °F 38.7 °F 30.3 in Calm     95% 0 in 0 W/m2
19:04 39.9 °F 38.7 °F 30.3 in Calm     94.8% 0 in 0 W/m2
19:09 39.7 °F 38.5 °F 30.3 in Calm     94.8% 0 in 0 W/m2
19:14 39.6 °F 38.5 °F 30.3 in Calm     96% 0 in 0 W/m2
19:19 39.6 °F 38.5 °F 30.3 in Calm     95.7% 0 in 0 W/m2
19:24 39.6 °F 38.3 °F 30.3 in Calm     95% 0 in 0 W/m2
19:29 39.6 °F 38.3 °F 30.3 in Calm     95.7% 0 in 0 W/m2
19:34 39.4 °F 38.3 °F 30.3 in Calm     95.8% 0 in 0 W/m2
19:39 39.4 °F 38.1 °F 30.3 in Calm     95% 0 in 0 W/m2
19:44 39.4 °F 38.1 °F 30.3 in Calm     95% 0 in 0 W/m2
19:49 39.7 °F 38.3 °F 30.3 in Calm     94.7% 0 in 0 W/m2
19:54 39.9 °F 38.5 °F 30.3 in Calm     94.5% 0 in 0 W/m2
19:59 39.9 °F 38.5 °F 30.3 in Calm     94.6% 0 in 0 W/m2
20:04 39.9 °F 38.3 °F 30.3 in Calm     94.2% 0 in 0 W/m2
20:09 39.7 °F 38.7 °F 30.3 in Calm     95% 0 in 0 W/m2
20:14 39.7 °F 38.5 °F 30.3 in Calm     95% 0 in 0 W/m2
20:19 39.7 °F 38.3 °F 30.3 in Calm     94.3% 0 in 0 W/m2
20:24 39.7 °F 38.1 °F 30.3 in Calm     94% 0 in 0 W/m2
20:29 40.1 °F 38.3 °F 30.3 in Calm     93.3% 0 in 0 W/m2
20:34 40.1 °F 38.5 °F 30.3 in Calm     94% 0 in 0 W/m2
20:39 40.1 °F 38.7 °F 30.3 in Calm     94.4% 0 in 0 W/m2
20:44 40.1 °F 38.5 °F 30.3 in Calm     94% 0 in 0 W/m2
20:49 39.7 °F 38.5 °F 30.3 in Calm     94.8% 0 in 0 W/m2
20:54 39.7 °F 38.5 °F 30.3 in Calm     95% 0 in 0 W/m2
20:59 39.6 °F 38.3 °F 30.3 in Calm     95% 0 in 0 W/m2
21:04 39.6 °F 38.3 °F 30.3 in Calm     95% 0 in 0 W/m2
21:09 40.1 °F 38.5 °F 30.3 in Calm     94.2% 0 in 0 W/m2
21:14 40.5 °F 39 °F 30.3 in Calm     94.7% 0 in 0 W/m2
21:19 40.3 °F 38.7 °F 30.3 in Calm     94% 0 in 0 W/m2
21:24 40.3 °F 38.7 °F 30.3 in Calm     94% 0 in 0 W/m2
21:29 40.1 °F 38.8 °F 30.3 in Calm     95% 0 in 0 W/m2
21:34 39.7 °F 38.5 °F 30.3 in Calm     95% 0 in 0 W/m2
21:39 39.9 °F 38.3 °F 30.3 in Calm     93.8% 0 in 0 W/m2
21:44 39.9 °F 38.5 °F 30.3 in Calm     94.4% 0 in 0 W/m2
21:49 39.7 °F 38.5 °F 30.3 in Calm     95% 0 in 0 W/m2
21:54 39.6 °F 38.5 °F 30.3 in Calm     95.9% 0 in 0 W/m2
21:59 39.6 °F 38.3 °F 30.3 in Calm     95.2% 0 in 0 W/m2
22:04 39.6 °F 37.9 °F 30.3 in Calm     93.9% 0 in 0 W/m2
22:09 39.9 °F 38.3 °F 30.3 in Calm     93.9% 0 in 0 W/m2
22:14 39.9 °F 38.5 °F 30.3 in Calm     94.4% 0 in 0 W/m2
22:19 39.9 °F 38.7 °F 30.3 in Calm     95% 0 in 0 W/m2
22:24 39.9 °F 38.7 °F 30.3 in Calm     95.1% 0 in 0 W/m2
22:29 39.9 °F 38.7 °F 30.3 in Calm     95% 0 in 0 W/m2
22:34 39.9 °F 38.7 °F 30.3 in Calm     95% 0 in 0 W/m2
22:39 39.9 °F 38.7 °F 30.3 in Calm     95.3% 0 in 0 W/m2
22:44 39.9 °F 39 °F 30.3 in Calm     96.4% 0 in 0 W/m2
22:49 39.7 °F 38.8 °F 30.3 in Calm     96.8% 0 in 0 W/m2
22:54 39.4 °F 38.8 °F 30.3 in SSW 0.1 mph 2.5 mph 98% 0 in 0 W/m2
22:59 39.4 °F 39 °F 30.3 in Calm     98.3% 0 in 0 W/m2
23:04 39.4 °F 39 °F 30.3 in Calm     98.6% 0 in 0 W/m2
23:09 39.2 °F 39 °F 30.3 in Calm     98.9% 0 in 0 W/m2
23:14 39 °F 38.7 °F 30.3 in Calm     98.8% 0 in 0 W/m2
23:19 39 °F 38.8 °F 30.3 in Calm     99% 0 in 0 W/m2
23:24 39 °F 38.8 °F 30.3 in Calm     99% 0 in 0 W/m2
23:29 39 °F 38.8 °F 30.3 in Calm     99% 0 in 0 W/m2
23:34 39 °F 38.8 °F 30.3 in Calm     99% 0 in 0 W/m2
23:39 38.8 °F 38.8 °F 30.3 in Calm     99% 0 in 0 W/m2
23:44 38.8 °F 38.7 °F 30.3 in Calm     99% 0 in 0 W/m2
23:49 38.7 °F 38.3 °F 30.3 in Calm     98.8% 0 in 0 W/m2
23:54 38.1 °F 37.4 °F 30.3 in Calm     97.2% 0 in 0 W/m2
23:59 38.1 °F 37.4 °F 30.3 in Calm     96.9% 0 in 0 W/m2
Juneau County Weather
Compliments of Weather Underground - 2 mb